sensor_id;sensor_type;location;lat;lon;timestamp;pressure;altitude;pressure_sealevel;temperature;humidity
76866;BME280;66647;52.124;5.416;2023-03-01T00:01:19;103358.97;;;-1.05;75.39
76866;BME280;66647;52.124;5.416;2023-03-01T00:03:48;103355.44;;;-1.06;75.87
76866;BME280;66647;52.124;5.416;2023-03-01T00:06:15;103349.41;;;-1.08;76.14
76866;BME280;66647;52.124;5.416;2023-03-01T00:08:44;103352.47;;;-1.11;75.95
76866;BME280;66647;52.124;5.416;2023-03-01T00:13:44;103357.22;;;-1.13;76.49
76866;BME280;66647;52.124;5.416;2023-03-01T00:16:17;103349.31;;;-1.14;76.91
76866;BME280;66647;52.124;5.416;2023-03-01T00:18:44;103355.06;;;-1.17;76.87
76866;BME280;66647;52.124;5.416;2023-03-01T00:21:11;103349.03;;;-1.19;76.83
76866;BME280;66647;52.124;5.416;2023-03-01T00:23:38;103351.06;;;-1.21;76.39
76866;BME280;66647;52.124;5.416;2023-03-01T00:26:10;103352.09;;;-1.22;76.31
76866;BME280;66647;52.124;5.416;2023-03-01T00:28:40;103349.78;;;-1.25;76.55
76866;BME280;66647;52.124;5.416;2023-03-01T00:31:09;103349.13;;;-1.27;76.58
76866;BME280;66647;52.124;5.416;2023-03-01T00:33:37;103342.47;;;-1.31;76.76
76866;BME280;66647;52.124;5.416;2023-03-01T00:36:04;103335.13;;;-1.38;76.88
76866;BME280;66647;52.124;5.416;2023-03-01T00:38:38;103337.16;;;-1.40;77.05
76866;BME280;66647;52.124;5.416;2023-03-01T00:41:07;103332.16;;;-1.43;77.17
76866;BME280;66647;52.124;5.416;2023-03-01T00:43:34;103334.38;;;-1.46;76.95
76866;BME280;66647;52.124;5.416;2023-03-01T00:46:09;103341.31;;;-1.52;77.56
76866;BME280;66647;52.124;5.416;2023-03-01T00:48:36;103341.31;;;-1.52;77.62
76866;BME280;66647;52.124;5.416;2023-03-01T00:53:37;103337.97;;;-1.54;77.86
76866;BME280;66647;52.124;5.416;2023-03-01T00:56:04;103330.28;;;-1.57;78.17
76866;BME280;66647;52.124;5.416;2023-03-01T00:58:32;103335.00;;;-1.59;78.14
76866;BME280;66647;52.124;5.416;2023-03-01T01:00:59;103333.31;;;-1.60;77.92
76866;BME280;66647;52.124;5.416;2023-03-01T01:03:27;103321.28;;;-1.64;78.18
76866;BME280;66647;52.124;5.416;2023-03-01T01:05:53;103329.53;;;-1.65;78.26
76866;BME280;66647;52.124;5.416;2023-03-01T01:08:20;103325.34;;;-1.68;78.27
76866;BME280;66647;52.124;5.416;2023-03-01T01:10:50;103320.34;;;-1.71;78.04
76866;BME280;66647;52.124;5.416;2023-03-01T01:13:16;103314.50;;;-1.75;78.64
76866;BME280;66647;52.124;5.416;2023-03-01T01:15:43;103315.88;;;-1.79;79.06
76866;BME280;66647;52.124;5.416;2023-03-01T01:18:10;103308.00;;;-1.80;78.84
76866;BME280;66647;52.124;5.416;2023-03-01T01:20:36;103308.34;;;-1.83;78.71
76866;BME280;66647;52.124;5.416;2023-03-01T01:23:05;103298.97;;;-1.87;78.81
76866;BME280;66647;52.124;5.416;2023-03-01T01:25:34;103303.69;;;-1.89;79.00
76866;BME280;66647;52.124;5.416;2023-03-01T01:28:05;103303.03;;;-1.91;78.64
76866;BME280;66647;52.124;5.416;2023-03-01T01:30:31;103304.06;;;-1.92;78.96
76866;BME280;66647;52.124;5.416;2023-03-01T01:32:58;103295.72;;;-1.97;78.63
76866;BME280;66647;52.124;5.416;2023-03-01T01:35:24;103295.06;;;-1.99;78.68
76866;BME280;66647;52.124;5.416;2023-03-01T01:37:51;103288.22;;;-2.02;78.70
76866;BME280;66647;52.124;5.416;2023-03-01T01:40:17;103290.25;;;-2.04;78.92
76866;BME280;66647;52.124;5.416;2023-03-01T01:42:44;103298.66;;;-2.07;78.77
76866;BME280;66647;52.124;5.416;2023-03-01T01:45:33;103302.72;;;-2.11;79.26
76866;BME280;66647;52.124;5.416;2023-03-01T01:48:03;103301.22;;;-2.14;79.27
76866;BME280;66647;52.124;5.416;2023-03-01T01:50:32;103294.19;;;-2.15;79.75
76866;BME280;66647;52.124;5.416;2023-03-01T01:53:08;103288.34;;;-2.18;79.44
76866;BME280;66647;52.124;5.416;2023-03-01T01:55:37;103288.69;;;-2.21;79.80
76866;BME280;66647;52.124;5.416;2023-03-01T01:58:07;103291.56;;;-2.23;79.72
76866;BME280;66647;52.124;5.416;2023-03-01T02:00:35;103290.25;;;-2.27;80.02
76866;BME280;66647;52.124;5.416;2023-03-01T02:03:08;103280.53;;;-2.28;80.03
76866;BME280;66647;52.124;5.416;2023-03-01T02:05:58;103282.19;;;-2.27;80.28
76866;BME280;66647;52.124;5.416;2023-03-01T02:08:29;103281.91;;;-2.32;80.58
76866;BME280;66647;52.124;5.416;2023-03-01T02:10:58;103280.41;;;-2.34;80.16
76866;BME280;66647;52.124;5.416;2023-03-01T02:13:32;103284.31;;;-2.37;80.74
76866;BME280;66647;52.124;5.416;2023-03-01T02:16:03;103281.97;;;-2.40;81.16
76866;BME280;66647;52.124;5.416;2023-03-01T02:18:31;103274.94;;;-2.41;80.60
76866;BME280;66647;52.124;5.416;2023-03-01T02:21:08;103276.28;;;-2.45;80.91
76866;BME280;66647;52.124;5.416;2023-03-01T02:23:40;103281.00;;;-2.47;80.86
76866;BME280;66647;52.124;5.416;2023-03-01T02:26:21;103278.50;;;-2.49;80.99
76866;BME280;66647;52.124;5.416;2023-03-01T02:28:50;103279.69;;;-2.51;81.04
76866;BME280;66647;52.124;5.416;2023-03-01T02:31:19;103272.66;;;-2.52;81.62
76866;BME280;66647;52.124;5.416;2023-03-01T02:34:07;103269.97;;;-2.52;81.37
76866;BME280;66647;52.124;5.416;2023-03-01T02:36:36;103260.59;;;-2.56;81.25
76866;BME280;66647;52.124;5.416;2023-03-01T02:39:05;103259.94;;;-2.58;81.11
76866;BME280;66647;52.124;5.416;2023-03-01T02:41:37;103258.66;;;-2.62;81.60
76866;BME280;66647;52.124;5.416;2023-03-01T02:44:05;103246.22;;;-2.63;81.31
76866;BME280;66647;52.124;5.416;2023-03-01T02:46:32;103258.00;;;-2.64;81.36
76866;BME280;66647;52.124;5.416;2023-03-01T02:48:59;103252.13;;;-2.68;81.94
76866;BME280;66647;52.124;5.416;2023-03-01T02:54:17;103252.66;;;-2.73;81.75
76866;BME280;66647;52.124;5.416;2023-03-01T02:56:48;103249.50;;;-2.76;81.68
76866;BME280;66647;52.124;5.416;2023-03-01T02:59:20;103248.00;;;-2.79;81.53
76866;BME280;66647;52.124;5.416;2023-03-01T03:01:48;103246.31;;;-2.80;81.88
76866;BME280;66647;52.124;5.416;2023-03-01T03:04:17;103245.66;;;-2.82;81.92
76866;BME280;66647;52.124;5.416;2023-03-01T03:06:48;103247.69;;;-2.84;81.58
76866;BME280;66647;52.124;5.416;2023-03-01T03:09:16;103247.03;;;-2.86;82.09
76866;BME280;66647;52.124;5.416;2023-03-01T03:11:50;103240.34;;;-2.90;82.37
76866;BME280;66647;52.124;5.416;2023-03-01T03:14:17;103238.69;;;-2.91;82.24
76866;BME280;66647;52.124;5.416;2023-03-01T03:16:48;103246.44;;;-2.96;82.47
76866;BME280;66647;52.124;5.416;2023-03-01T03:19:16;103241.59;;;-3.00;82.58
76866;BME280;66647;52.124;5.416;2023-03-01T03:21:44;103236.91;;;-2.98;82.42
76866;BME280;66647;52.124;5.416;2023-03-01T03:24:10;103236.06;;;-2.99;82.96
76866;BME280;66647;52.124;5.416;2023-03-01T03:26:37;103234.22;;;-2.98;82.59
76866;BME280;66647;52.124;5.416;2023-03-01T03:29:03;103218.28;;;-3.00;83.03
76866;BME280;66647;52.124;5.416;2023-03-01T03:31:30;103229.03;;;-3.00;82.77
76866;BME280;66647;52.124;5.416;2023-03-01T03:33:57;103235.56;;;-3.02;82.93
76866;BME280;66647;52.124;5.416;2023-03-01T03:36:25;103230.22;;;-3.02;83.07
76866;BME280;66647;52.124;5.416;2023-03-01T03:38:52;103237.78;;;-3.06;82.94
76866;BME280;66647;52.124;5.416;2023-03-01T03:41:18;103228.41;;;-3.10;83.10
76866;BME280;66647;52.124;5.416;2023-03-01T03:43:45;103231.25;;;-3.12;83.21
76866;BME280;66647;52.124;5.416;2023-03-01T03:46:12;103236.13;;;-3.15;83.24
76866;BME280;66647;52.124;5.416;2023-03-01T03:48:42;103224.56;;;-3.16;83.30
76866;BME280;66647;52.124;5.416;2023-03-01T03:51:12;103225.59;;;-3.17;83.43
76866;BME280;66647;52.124;5.416;2023-03-01T03:53:39;103221.88;;;-3.16;83.36
76866;BME280;66647;52.124;5.416;2023-03-01T03:56:06;103216.03;;;-3.19;83.21
76866;BME280;66647;52.124;5.416;2023-03-01T03:58:32;103213.69;;;-3.22;83.60
76866;BME280;66647;52.124;5.416;2023-03-01T04:01:02;103208.72;;;-3.25;83.74
76866;BME280;66647;52.124;5.416;2023-03-01T04:03:30;103215.63;;;-3.31;83.28
76866;BME280;66647;52.124;5.416;2023-03-01T04:06:00;103223.00;;;-3.33;83.86
76866;BME280;66647;52.124;5.416;2023-03-01T04:08:33;103225.84;;;-3.34;83.65
76866;BME280;66647;52.124;5.416;2023-03-01T04:11:27;103220.00;;;-3.38;83.95
76866;BME280;66647;52.124;5.416;2023-03-01T04:13:56;103222.03;;;-3.40;83.88
76866;BME280;66647;52.124;5.416;2023-03-01T04:16:28;103230.91;;;-3.40;83.52
76866;BME280;66647;52.124;5.416;2023-03-01T04:18:55;103224.88;;;-3.42;83.93
76866;BME280;66647;52.124;5.416;2023-03-01T04:21:21;103228.56;;;-3.43;83.83
76866;BME280;66647;52.124;5.416;2023-03-01T04:23:48;103222.88;;;-3.48;83.62
76866;BME280;66647;52.124;5.416;2023-03-01T04:26:19;103233.94;;;-3.51;83.67
76866;BME280;66647;52.124;5.416;2023-03-01T04:28:46;103224.25;;;-3.52;83.34
76866;BME280;66647;52.124;5.416;2023-03-01T04:31:17;103222.56;;;-3.53;83.86
76866;BME280;66647;52.124;5.416;2023-03-01T04:36:14;103227.44;;;-3.56;83.95
76866;BME280;66647;52.124;5.416;2023-03-01T04:38:42;103220.78;;;-3.60;83.85
76866;BME280;66647;52.124;5.416;2023-03-01T04:41:16;103221.13;;;-3.63;83.93
76866;BME280;66647;52.124;5.416;2023-03-01T04:43:44;103220.28;;;-3.64;84.23
76866;BME280;66647;52.124;5.416;2023-03-01T04:46:13;103223.31;;;-3.67;84.22
76866;BME280;66647;52.124;5.416;2023-03-01T04:48:42;103213.94;;;-3.71;84.33
76866;BME280;66647;52.124;5.416;2023-03-01T04:51:10;103212.44;;;-3.74;84.58
76866;BME280;66647;52.124;5.416;2023-03-01T04:56:50;103210.09;;;-3.77;84.73
76866;BME280;66647;52.124;5.416;2023-03-01T04:59:56;103200.91;;;-3.82;84.37
76866;BME280;66647;52.124;5.416;2023-03-01T05:02:47;103192.19;;;-3.84;84.62
76866;BME280;66647;52.124;5.416;2023-03-01T05:05:15;103188.84;;;-3.86;84.90
76866;BME280;66647;52.124;5.416;2023-03-01T05:07:42;103188.00;;;-3.87;84.67
76866;BME280;66647;52.124;5.416;2023-03-01T05:10:09;103183.81;;;-3.89;84.78
76866;BME280;66647;52.124;5.416;2023-03-01T05:12:35;103181.34;;;-3.91;84.94
76866;BME280;66647;52.124;5.416;2023-03-01T05:15:04;103181.53;;;-3.92;84.92
76866;BME280;66647;52.124;5.416;2023-03-01T05:17:33;103177.50;;;-3.96;85.01
76866;BME280;66647;52.124;5.416;2023-03-01T05:20:00;103169.63;;;-3.98;84.81
76866;BME280;66647;52.124;5.416;2023-03-01T05:22:27;103171.66;;;-4.00;84.83
76866;BME280;66647;52.124;5.416;2023-03-01T05:24:54;103169.16;;;-4.01;85.03
76866;BME280;66647;52.124;5.416;2023-03-01T05:27:21;103162.13;;;-4.02;84.85
76866;BME280;66647;52.124;5.416;2023-03-01T05:29:48;103155.44;;;-4.07;84.75
76866;BME280;66647;52.124;5.416;2023-03-01T05:32:15;103151.06;;;-4.08;84.96
76866;BME280;66647;52.124;5.416;2023-03-01T05:34:42;103153.75;;;-4.08;84.80
76866;BME280;66647;52.124;5.416;2023-03-01T05:37:08;103154.94;;;-4.10;84.36
76866;BME280;66647;52.124;5.416;2023-03-01T05:39:35;103146.06;;;-4.11;85.07
76866;BME280;66647;52.124;5.416;2023-03-01T05:42:02;103149.91;;;-4.13;85.06
76866;BME280;66647;52.124;5.416;2023-03-01T05:44:29;103131.34;;;-4.15;85.10
76866;BME280;66647;52.124;5.416;2023-03-01T05:46:56;103136.69;;;-4.15;85.06
76866;BME280;66647;52.124;5.416;2023-03-01T05:49:23;103134.19;;;-4.16;85.12
76866;BME280;66647;52.124;5.416;2023-03-01T05:51:52;103139.72;;;-4.18;85.19
76866;BME280;66647;52.124;5.416;2023-03-01T05:54:20;103136.03;;;-4.17;85.33
76866;BME280;66647;52.124;5.416;2023-03-01T05:56:47;103136.38;;;-4.20;85.38
76866;BME280;66647;52.124;5.416;2023-03-01T05:59:15;103135.69;;;-4.22;85.63
76866;BME280;66647;52.124;5.416;2023-03-01T06:01:42;103136.72;;;-4.23;85.64
76866;BME280;66647;52.124;5.416;2023-03-01T06:04:09;103129.88;;;-4.25;85.53
76866;BME280;66647;52.124;5.416;2023-03-01T06:06:36;103132.72;;;-4.27;85.61
76866;BME280;66647;52.124;5.416;2023-03-01T06:09:06;103131.38;;;-4.31;85.46
76866;BME280;66647;52.124;5.416;2023-03-01T06:11:34;103129.72;;;-4.32;85.68
76866;BME280;66647;52.124;5.416;2023-03-01T06:14:01;103128.03;;;-4.33;85.57
76866;BME280;66647;52.124;5.416;2023-03-01T06:16:28;103134.41;;;-4.34;85.25
76866;BME280;66647;52.124;5.416;2023-03-01T06:18:55;103135.41;;;-4.35;85.60
76866;BME280;66647;52.124;5.416;2023-03-01T06:21:22;103138.94;;;-4.34;85.65
76866;BME280;66647;52.124;5.416;2023-03-01T06:23:48;103137.44;;;-4.37;85.54
76866;BME280;66647;52.124;5.416;2023-03-01T06:26:18;103148.97;;;-4.36;85.50
76866;BME280;66647;52.124;5.416;2023-03-01T06:28:48;103135.59;;;-4.36;85.36
76866;BME280;66647;52.124;5.416;2023-03-01T06:31:17;103138.25;;;-4.36;85.40
76866;BME280;66647;52.124;5.416;2023-03-01T06:33:44;103139.09;;;-4.36;85.31
76866;BME280;66647;52.124;5.416;2023-03-01T06:36:11;103137.44;;;-4.37;85.37
76866;BME280;66647;52.124;5.416;2023-03-01T06:38:37;103141.59;;;-4.34;85.55
76866;BME280;66647;52.124;5.416;2023-03-01T06:41:04;103137.09;;;-4.34;85.69
76866;BME280;66647;52.124;5.416;2023-03-01T06:43:30;103139.59;;;-4.32;85.51
76866;BME280;66647;52.124;5.416;2023-03-01T06:45:57;103142.94;;;-4.30;85.60
76866;BME280;66647;52.124;5.416;2023-03-01T06:48:23;103138.25;;;-4.28;85.58
76866;BME280;66647;52.124;5.416;2023-03-01T06:50:51;103140.59;;;-4.25;85.57
76866;BME280;66647;52.124;5.416;2023-03-01T06:53:18;103138.56;;;-4.23;85.79
76866;BME280;66647;52.124;5.416;2023-03-01T06:55:44;103138.38;;;-4.22;85.84
76866;BME280;66647;52.124;5.416;2023-03-01T06:58:11;103144.41;;;-4.20;85.88
76866;BME280;66647;52.124;5.416;2023-03-01T07:00:38;103136.38;;;-4.20;86.14
76866;BME280;66647;52.124;5.416;2023-03-01T07:03:08;103137.03;;;-4.18;86.26
76866;BME280;66647;52.124;5.416;2023-03-01T07:05:36;103139.38;;;-4.15;86.38
76866;BME280;66647;52.124;5.416;2023-03-01T07:08:02;103140.53;;;-4.09;86.53
76866;BME280;66647;52.124;5.416;2023-03-01T07:10:29;103132.16;;;-4.06;86.47
76866;BME280;66647;52.124;5.416;2023-03-01T07:12:57;103137.00;;;-4.01;86.68
76866;BME280;66647;52.124;5.416;2023-03-01T07:15:25;103140.00;;;-3.96;87.17
76866;BME280;66647;52.124;5.416;2023-03-01T07:17:52;103143.84;;;-3.91;86.85
76866;BME280;66647;52.124;5.416;2023-03-01T07:20:19;103140.25;;;-3.83;86.77
76866;BME280;66647;52.124;5.416;2023-03-01T07:22:52;103145.38;;;-3.65;86.94
76866;BME280;66647;52.124;5.416;2023-03-01T07:25:19;103143.75;;;-3.44;87.02
76866;BME280;66647;52.124;5.416;2023-03-01T07:27:50;103146.19;;;-3.26;86.80
76866;BME280;66647;52.124;5.416;2023-03-01T07:30:18;103143.06;;;-3.15;86.75
76866;BME280;66647;52.124;5.416;2023-03-01T07:32:45;103146.59;;;-3.14;86.62
76866;BME280;66647;52.124;5.416;2023-03-01T07:35:14;103149.81;;;-2.96;86.60
76866;BME280;66647;52.124;5.416;2023-03-01T07:37:41;103141.53;;;-1.90;86.43
76866;BME280;66647;52.124;5.416;2023-03-01T07:40:08;103149.47;;;-1.16;85.03
76866;BME280;66647;52.124;5.416;2023-03-01T07:42:35;103144.81;;;-0.30;82.22
76866;BME280;66647;52.124;5.416;2023-03-01T07:45:02;103151.03;;;-0.37;80.20
76866;BME280;66647;52.124;5.416;2023-03-01T07:47:32;103161.78;;;-1.07;81.27
76866;BME280;66647;52.124;5.416;2023-03-01T07:49:58;103153.91;;;-1.45;82.90
76866;BME280;66647;52.124;5.416;2023-03-01T07:52:25;103152.91;;;-1.44;83.98
76866;BME280;66647;52.124;5.416;2023-03-01T07:54:52;103153.22;;;-0.19;83.72
76866;BME280;66647;52.124;5.416;2023-03-01T07:57:20;103141.47;;;1.77;77.98
76866;BME280;66647;52.124;5.416;2023-03-01T07:59:49;103138.41;;;2.69;73.85
76866;BME280;66647;52.124;5.416;2023-03-01T08:02:18;103140.63;;;3.42;72.56
76866;BME280;66647;52.124;5.416;2023-03-01T08:04:45;103136.72;;;4.84;67.76
76866;BME280;66647;52.124;5.416;2023-03-01T08:07:11;103137.72;;;5.78;65.62
76866;BME280;66647;52.124;5.416;2023-03-01T08:09:38;103132.69;;;6.90;58.87
76866;BME280;66647;52.124;5.416;2023-03-01T08:12:05;103131.81;;;7.68;57.47
76866;BME280;66647;52.124;5.416;2023-03-01T08:14:32;103122.31;;;8.09;54.20
76866;BME280;66647;52.124;5.416;2023-03-01T08:17:01;103125.53;;;8.71;52.46
76866;BME280;66647;52.124;5.416;2023-03-01T08:19:29;103124.31;;;9.16;50.02
76866;BME280;66647;52.124;5.416;2023-03-01T08:21:56;103124.47;;;9.31;47.76
76866;BME280;66647;52.124;5.416;2023-03-01T08:24:24;103129.59;;;9.60;48.05
76866;BME280;66647;52.124;5.416;2023-03-01T08:26:51;103123.22;;;10.38;47.07
76866;BME280;66647;52.124;5.416;2023-03-01T08:29:17;103117.47;;;10.45;43.88
76866;BME280;66647;52.124;5.416;2023-03-01T08:31:44;103120.34;;;10.96;44.51
76866;BME280;66647;52.124;5.416;2023-03-01T08:34:13;103114.06;;;11.36;42.84
76866;BME280;66647;52.124;5.416;2023-03-01T08:36:44;103117.06;;;11.39;42.02
76866;BME280;66647;52.124;5.416;2023-03-01T08:39:14;103112.13;;;11.26;40.49
76866;BME280;66647;52.124;5.416;2023-03-01T08:41:41;103112.06;;;11.72;41.47
76866;BME280;66647;52.124;5.416;2023-03-01T08:44:09;103108.16;;;12.03;39.68
76866;BME280;66647;52.124;5.416;2023-03-01T08:46:39;103104.94;;;11.86;38.66
76866;BME280;66647;52.124;5.416;2023-03-01T08:49:14;103103.66;;;12.33;39.11
76866;BME280;66647;52.124;5.416;2023-03-01T08:51:42;103106.38;;;12.38;38.31
76866;BME280;66647;52.124;5.416;2023-03-01T08:54:14;103095.09;;;12.84;39.28
76866;BME280;66647;52.124;5.416;2023-03-01T08:56:41;103096.16;;;12.93;38.38
76866;BME280;66647;52.124;5.416;2023-03-01T08:59:10;103100.13;;;12.71;37.07
76866;BME280;66647;52.124;5.416;2023-03-01T09:01:38;103097.03;;;13.22;36.19
76866;BME280;66647;52.124;5.416;2023-03-01T09:04:04;103091.59;;;13.46;35.47
76866;BME280;66647;52.124;5.416;2023-03-01T09:06:32;103085.44;;;13.25;36.76
76866;BME280;66647;52.124;5.416;2023-03-01T09:08:59;103082.00;;;13.38;35.71
76866;BME280;66647;52.124;5.416;2023-03-01T09:11:28;103078.41;;;13.04;35.35
76866;BME280;66647;52.124;5.416;2023-03-01T09:13:55;103073.97;;;13.08;35.82
76866;BME280;66647;52.124;5.416;2023-03-01T09:16:22;103074.72;;;13.24;35.72
76866;BME280;66647;52.124;5.416;2023-03-01T09:18:53;103081.53;;;13.31;34.92
76866;BME280;66647;52.124;5.416;2023-03-01T09:21:22;103078.03;;;13.21;35.84
76866;BME280;66647;52.124;5.416;2023-03-01T09:24:05;103073.94;;;13.71;35.46
76866;BME280;66647;52.124;5.416;2023-03-01T09:26:32;103060.16;;;13.71;34.82
76866;BME280;66647;52.124;5.416;2023-03-01T09:29:06;103066.16;;;13.54;33.56
76866;BME280;66647;52.124;5.416;2023-03-01T09:31:39;103059.94;;;13.38;34.89
76866;BME280;66647;52.124;5.416;2023-03-01T09:34:05;103056.28;;;13.48;34.90
76866;BME280;66647;52.124;5.416;2023-03-01T09:36:33;103053.28;;;13.44;33.19
76866;BME280;66647;52.124;5.416;2023-03-01T09:39:01;103045.28;;;13.96;34.29
76866;BME280;66647;52.124;5.416;2023-03-01T09:42:00;103049.88;;;14.81;33.99
76866;BME280;66647;52.124;5.416;2023-03-01T09:44:48;103039.78;;;14.33;32.88
76866;BME280;66647;52.124;5.416;2023-03-01T09:47:18;103041.78;;;14.52;32.61
76866;BME280;66647;52.124;5.416;2023-03-01T09:50:11;103042.81;;;14.56;32.32
76866;BME280;66647;52.124;5.416;2023-03-01T09:55:10;103035.19;;;14.48;32.71
76866;BME280;66647;52.124;5.416;2023-03-01T09:57:50;103041.78;;;14.52;32.30
76866;BME280;66647;52.124;5.416;2023-03-01T10:03:16;103047.66;;;14.64;31.30
76866;BME280;66647;52.124;5.416;2023-03-01T10:10:52;103047.69;;;14.40;30.79
76866;BME280;66647;52.124;5.416;2023-03-01T10:13:25;103037.41;;;14.64;31.02
76866;BME280;66647;52.124;5.416;2023-03-01T10:15:57;103047.34;;;14.84;30.17
76866;BME280;66647;52.124;5.416;2023-03-01T10:18:28;103044.72;;;14.93;29.75
76866;BME280;66647;52.124;5.416;2023-03-01T10:21:19;103039.97;;;14.79;30.00
76866;BME280;66647;52.124;5.416;2023-03-01T10:23:50;103031.38;;;14.25;30.36
76866;BME280;66647;52.124;5.416;2023-03-01T10:29:03;103025.41;;;15.06;29.14
76866;BME280;66647;52.124;5.416;2023-03-01T10:31:46;103024.56;;;14.92;30.84
76866;BME280;66647;52.124;5.416;2023-03-01T10:34:27;103028.56;;;15.00;29.38
76866;BME280;66647;52.124;5.416;2023-03-01T10:37:00;103022.25;;;15.13;30.56
76866;BME280;66647;52.124;5.416;2023-03-01T10:39:27;103017.19;;;15.48;29.35
76866;BME280;66647;52.124;5.416;2023-03-01T10:42:11;103009.56;;;15.12;29.79
76866;BME280;66647;52.124;5.416;2023-03-01T10:44:48;103009.50;;;14.85;28.97
76866;BME280;66647;52.124;5.416;2023-03-01T10:50:05;103002.31;;;13.90;29.26
76866;BME280;66647;52.124;5.416;2023-03-01T10:52:37;103006.84;;;14.42;27.92
76866;BME280;66647;52.124;5.416;2023-03-01T10:57:39;102991.94;;;14.43;28.47
76866;BME280;66647;52.124;5.416;2023-03-01T11:00:20;102984.28;;;14.72;27.31
76866;BME280;66647;52.124;5.416;2023-03-01T11:05:26;102978.13;;;14.62;27.98
76866;BME280;66647;52.124;5.416;2023-03-01T11:07:57;102973.91;;;14.97;27.31
76866;BME280;66647;52.124;5.416;2023-03-01T11:10:33;102968.84;;;15.31;27.76
76866;BME280;66647;52.124;5.416;2023-03-01T11:13:17;102962.84;;;15.57;28.00
76866;BME280;66647;52.124;5.416;2023-03-01T11:16:02;102961.59;;;15.49;27.80
76866;BME280;66647;52.124;5.416;2023-03-01T11:18:30;102967.03;;;15.82;26.80
76866;BME280;66647;52.124;5.416;2023-03-01T11:21:12;102954.28;;;15.94;27.17
76866;BME280;66647;52.124;5.416;2023-03-01T11:23:39;102941.50;;;16.21;25.61
76866;BME280;66647;52.124;5.416;2023-03-01T11:26:09;102939.44;;;15.90;25.43
76866;BME280;66647;52.124;5.416;2023-03-01T11:28:40;102947.88;;;16.21;25.64
76866;BME280;66647;52.124;5.416;2023-03-01T11:31:10;102939.63;;;16.30;25.66
76866;BME280;66647;52.124;5.416;2023-03-01T11:38:53;102949.00;;;15.70;25.75
76866;BME280;66647;52.124;5.416;2023-03-01T11:41:26;102938.66;;;15.62;27.72
76866;BME280;66647;52.124;5.416;2023-03-01T11:43:59;102952.50;;;16.12;26.22
76866;BME280;66647;52.124;5.416;2023-03-01T11:47:19;102940.44;;;15.94;26.43
76866;BME280;66647;52.124;5.416;2023-03-01T11:58:08;102933.56;;;16.05;24.09
76866;BME280;66647;52.124;5.416;2023-03-01T12:01:07;102929.25;;;15.99;26.51
76866;BME280;66647;52.124;5.416;2023-03-01T12:07:00;102925.72;;;16.21;25.55
76866;BME280;66647;52.124;5.416;2023-03-01T12:09:36;102926.09;;;15.92;25.61
76866;BME280;66647;52.124;5.416;2023-03-01T12:12:38;102933.84;;;15.68;24.89
76866;BME280;66647;52.124;5.416;2023-03-01T12:18:13;102925.53;;;15.68;25.54
76866;BME280;66647;52.124;5.416;2023-03-01T12:20:56;102930.56;;;15.66;26.59
76866;BME280;66647;52.124;5.416;2023-03-01T12:23:48;102923.72;;;15.99;25.39
76866;BME280;66647;52.124;5.416;2023-03-01T12:34:35;102928.16;;;13.45;27.39
76866;BME280;66647;52.124;5.416;2023-03-01T12:50:42;102904.28;;;12.54;30.46
76866;BME280;66647;52.124;5.416;2023-03-01T12:53:26;102898.88;;;12.44;30.37
76866;BME280;66647;52.124;5.416;2023-03-01T12:56:46;102894.41;;;12.19;30.96
76866;BME280;66647;52.124;5.416;2023-03-01T13:07:21;102863.53;;;11.88;31.27
76866;BME280;66647;52.124;5.416;2023-03-01T13:10:11;102868.28;;;11.72;30.36
76866;BME280;66647;52.124;5.416;2023-03-01T13:17:52;102855.59;;;11.82;31.99
76866;BME280;66647;52.124;5.416;2023-03-01T13:20:21;102852.53;;;11.88;32.10
76866;BME280;66647;52.124;5.416;2023-03-01T13:23:02;102853.53;;;12.02;31.62
76866;BME280;66647;52.124;5.416;2023-03-01T13:25:29;102849.28;;;11.81;31.14
76866;BME280;66647;52.124;5.416;2023-03-01T13:33:59;102833.75;;;11.56;33.11
76866;BME280;66647;52.124;5.416;2023-03-01T13:38:58;102816.34;;;11.27;31.75
76866;BME280;66647;52.124;5.416;2023-03-01T13:44:36;102808.44;;;11.05;32.34
76866;BME280;66647;52.124;5.416;2023-03-01T13:49:51;102814.00;;;10.90;32.01
76866;BME280;66647;52.124;5.416;2023-03-01T13:52:44;102817.94;;;10.63;32.34
76866;BME280;66647;52.124;5.416;2023-03-01T13:55:18;102815.75;;;10.65;33.28
76866;BME280;66647;52.124;5.416;2023-03-01T13:57:48;102806.41;;;10.66;33.08
76866;BME280;66647;52.124;5.416;2023-03-01T14:05:34;102794.22;;;11.03;33.00
76866;BME280;66647;52.124;5.416;2023-03-01T14:08:03;102781.59;;;11.02;32.64
76866;BME280;66647;52.124;5.416;2023-03-01T14:10:36;102776.22;;;10.71;32.71
76866;BME280;66647;52.124;5.416;2023-03-01T14:13:29;102773.50;;;10.56;33.49
76866;BME280;66647;52.124;5.416;2023-03-01T14:16:23;102775.94;;;10.68;33.92
76866;BME280;66647;52.124;5.416;2023-03-01T14:19:06;102773.44;;;10.76;33.06
76866;BME280;66647;52.124;5.416;2023-03-01T14:21:39;102767.44;;;10.69;32.04
76866;BME280;66647;52.124;5.416;2023-03-01T14:24:16;102757.03;;;10.56;32.95
76866;BME280;66647;52.124;5.416;2023-03-01T14:26:43;102756.50;;;10.54;32.71
76866;BME280;66647;52.124;5.416;2023-03-01T14:29:37;102760.31;;;10.58;33.00
76866;BME280;66647;52.124;5.416;2023-03-01T14:32:24;102756.50;;;10.44;32.89
76866;BME280;66647;52.124;5.416;2023-03-01T14:34:51;102743.13;;;10.32;32.97
76866;BME280;66647;52.124;5.416;2023-03-01T14:37:25;102742.81;;;10.19;33.19
76866;BME280;66647;52.124;5.416;2023-03-01T14:39:55;102733.81;;;9.98;33.53
76866;BME280;66647;52.124;5.416;2023-03-01T14:42:24;102726.16;;;9.95;34.14
76866;BME280;66647;52.124;5.416;2023-03-01T14:44:54;102736.56;;;9.98;33.85
76866;BME280;66647;52.124;5.416;2023-03-01T14:47:43;102736.28;;;9.89;33.53
76866;BME280;66647;52.124;5.416;2023-03-01T14:50:22;102726.13;;;9.80;33.90
76866;BME280;66647;52.124;5.416;2023-03-01T14:52:52;102730.53;;;9.75;34.29
76866;BME280;66647;52.124;5.416;2023-03-01T14:55:31;102730.53;;;9.86;35.43
76866;BME280;66647;52.124;5.416;2023-03-01T14:58:03;102729.16;;;9.88;34.54
76866;BME280;66647;52.124;5.416;2023-03-01T15:00:32;102733.56;;;9.74;35.41